Terminal Aerodrome Forecast
Issued by NWS

Home | Current Version | Previous Version | Graphics & Text | Print | Product List | Glossary On
Versions: 1 2 3 4 5 6 7 8 9 10 11 12 13 14 15 16 17 18
000
FTUS43 KBIS 021100
TAFDIK
TAF
KDIK 021120Z 0212/0312 17009KT P6SM SKC
     FM021600 21014G24KT P6SM SKC
     FM030100 33018G28KT P6SM OVC040=

USA.gov is the U.S. government's official web portal to all federal, state and local government web resources and services.